Time;durP1;ratioP1;P1;durP2;ratioP2;P2;SDS_P1;SDS_P2;PMS_P1;PMS_P2;Temp;Humidity;BMP_temperature;BMP_pressure;BME280_temperature;BME280_humidity;BME280_pressure;Samples;Min_cycle;Max_cycle;Signal;HPM_P1;HPM_P2
2022/01/08 00:01:57;;;;;;;;;;;0.40;99.90;;;;;;5101736;27;19923;-87
2022/01/08 00:04:22;;;;;;;;;;;0.40;99.90;;;;;;5118891;27;19954;-87
2022/01/08 00:06:47;;;;;;;;;;;0.30;99.90;;;;;;5118715;27;19963;-87
2022/01/08 00:09:13;;;;;;;;;;;0.50;99.90;;;;;;5101663;27;19923;-87
2022/01/08 00:11:41;;;;;;;;;;;0.70;99.90;;;;;;5101748;27;19923;-87
2022/01/08 00:14:09;;;;;;;;;;;0.40;99.90;;;;;;5101662;27;19919;-87
2022/01/08 00:16:35;;;;;;;;;;;0.20;99.90;;;;;;5101690;27;19919;-87
2022/01/08 00:19:00;;;;;;;;;;;0.70;99.90;;;;;;5101930;27;19926;-87
2022/01/08 00:21:26;;;;;;;;;;;0.40;99.90;;;;;;5084429;27;19963;-87
2022/01/08 00:23:51;;;;;;;;;;;0.40;99.90;;;;;;5102128;27;19919;-87
2022/01/08 00:26:17;;;;;;;;;;;0.40;99.90;;;;;;5118414;27;19926;-87
2022/01/08 00:28:42;;;;;;;;;;;0.70;99.90;;;;;;5101411;27;19972;-87
2022/01/08 00:31:10;;;;;;;;;;;2.90;99.90;;;;;;5118153;27;19972;-88
2022/01/08 00:33:38;;;;;;;;;;;0.50;99.90;;;;;;5101454;27;19919;-87
2022/01/08 00:36:04;;;;;;;;;;;0.60;99.90;;;;;;5101665;27;19980;-87
2022/01/08 00:38:30;;;;;;;;;;;0.60;99.90;;;;;;5101245;27;19926;-87
2022/01/08 00:40:55;;;;;;;;;;;0.60;99.90;;;;;;5101306;27;19919;-88
2022/01/08 00:43:21;;;;;;;;;;;0.50;99.90;;;;;;5084120;27;20388;-87
2022/01/08 00:45:47;;;;;;;;;;;0.60;99.90;;;;;;5101281;27;20107;-87
2022/01/08 00:48:12;;;;;;;;;;;0.50;99.90;;;;;;5117916;27;20280;-88
2022/01/08 00:50:38;;;;;;;;;;;0.40;99.90;;;;;;5100792;27;20333;-87
2022/01/08 00:53:03;;;;;;;;;;;0.40;99.90;;;;;;5118535;27;19919;-87
2022/01/08 00:55:29;;;;;;;;;;;0.30;99.90;;;;;;5100771;27;19929;-87
2022/01/08 00:57:54;;;;;;;;;;;0.40;99.90;;;;;;5084091;27;19925;-87
2022/01/08 01:00:20;;;;;;;;;;;0.20;99.90;;;;;;5100845;27;20365;-87
2022/01/08 01:02:45;;;;;;;;;;;0.30;99.90;;;;;;5100434;27;19928;-87
2022/01/08 01:05:11;;;;;;;;;;;0.10;99.90;;;;;;5100586;27;20013;-87
2022/01/08 01:07:36;;;;;;;;;;;0.30;99.90;;;;;;5100752;27;19919;-87
2022/01/08 01:10:02;;;;;;;;;;;0.30;99.90;;;;;;5117904;27;19970;-87
2022/01/08 01:12:28;;;;;;;;;;;0.40;99.90;;;;;;5100647;27;19974;-86
2022/01/08 01:14:53;;;;;;;;;;;0.40;99.90;;;;;;5100481;27;19975;-87
2022/01/08 01:17:19;;;;;;;;;;;0.40;99.90;;;;;;5100396;27;20273;-87
2022/01/08 01:19:45;;;;;;;;;;;0.60;99.90;;;;;;5117590;27;19998;-87
2022/01/08 01:22:14;;;;;;;;;;;0.40;99.90;;;;;;5083366;27;19968;-87
2022/01/08 01:24:41;;;;;;;;;;;0.50;99.90;;;;;;5100772;27;19919;-87
2022/01/08 01:29:58;;;;;;;;;;;0.60;99.90;;;;;;5102836;27;20420;-86
2022/01/08 01:43:29;;;;;;;;;;;0.80;99.90;;;;;;5116554;27;19924;-88
2022/01/08 01:48:39;;;;;;;;;;;0.90;99.90;;;;;;5102240;27;19972;-87
2022/01/08 01:51:04;;;;;;;;;;;0.90;99.90;;;;;;5116544;27;19920;-87
2022/01/08 01:53:30;;;;;;;;;;;0.90;99.90;;;;;;5116677;27;19919;-88
2022/01/08 01:55:55;;;;;;;;;;;0.80;99.90;;;;;;5099749;27;19919;-89
2022/01/08 01:58:21;;;;;;;;;;;1.00;99.90;;;;;;5099874;27;19927;-88
2022/01/08 02:00:48;;;;;;;;;;;0.90;99.90;;;;;;5116318;27;19977;-89
2022/01/08 02:03:16;;;;;;;;;;;1.50;99.90;;;;;;5082380;27;19923;-89
2022/01/08 02:05:41;;;;;;;;;;;2.20;99.90;;;;;;5099436;27;19920;-88
2022/01/08 02:08:09;;;;;;;;;;;1.00;99.90;;;;;;5116538;27;19920;-88
2022/01/08 02:10:35;;;;;;;;;;;1.00;99.90;;;;;;5083303;27;19943;-88
2022/01/08 02:13:00;;;;;;;;;;;1.00;99.90;;;;;;5116407;27;20366;-88
2022/01/08 02:15:26;;;;;;;;;;;0.90;99.90;;;;;;5099863;27;19920;-88
2022/01/08 02:17:51;;;;;;;;;;;0.80;99.90;;;;;;5099244;27;20378;-88
2022/01/08 02:20:17;;;;;;;;;;;0.80;99.90;;;;;;5082255;27;19992;-88
2022/01/08 02:22:42;;;;;;;;;;;0.70;99.90;;;;;;5098988;27;19923;-88
2022/01/08 02:25:08;;;;;;;;;;;0.80;99.90;;;;;;5082369;27;19919;-88
2022/01/08 02:27:33;;;;;;;;;;;0.80;99.90;;;;;;5099336;27;20026;-87
2022/01/08 02:29:59;;;;;;;;;;;0.60;99.90;;;;;;5099381;27;19923;-88
2022/01/08 02:32:30;;;;;;;;;;;0.90;99.90;;;;;;5116209;28;19919;-88
2022/01/08 02:34:56;;;;;;;;;;;0.60;99.90;;;;;;5100180;28;20329;-88
2022/01/08 02:37:29;;;;;;;;;;;0.60;99.90;;;;;;5082024;28;19973;-87
2022/01/08 02:39:54;;;;;;;;;;;0.60;99.90;;;;;;5083338;28;19972;-88
2022/01/08 02:42:20;;;;;;;;;;;0.50;99.90;;;;;;5081728;28;20288;-88
2022/01/08 02:44:46;;;;;;;;;;;0.30;99.90;;;;;;5099013;28;19924;-88
2022/01/08 02:47:15;;;;;;;;;;;0.30;99.90;;;;;;5099118;28;19920;-87
2022/01/08 02:49:40;;;;;;;;;;;0.40;99.90;;;;;;5098967;28;20358;-87
2022/01/08 02:52:07;;;;;;;;;;;0.30;99.90;;;;;;5099095;28;19972;-87
2022/01/08 02:54:32;;;;;;;;;;;0.30;99.90;;;;;;5082358;28;19975;-88
2022/01/08 02:56:58;;;;;;;;;;;0.10;99.90;;;;;;5098847;28;20692;-88
2022/01/08 02:59:23;;;;;;;;;;;0.20;99.90;;;;;;5098846;28;19919;-86
2022/01/08 03:01:49;;;;;;;;;;;0.10;99.90;;;;;;5099380;28;20022;-87
2022/01/08 03:04:14;;;;;;;;;;;0.00;99.90;;;;;;5081956;28;19920;-87
2022/01/08 03:06:40;;;;;;;;;;;0.00;99.90;;;;;;5082226;28;19920;-87
2022/01/08 03:09:05;;;;;;;;;;;0.10;99.90;;;;;;5098739;28;19919;-87
2022/01/08 03:11:31;;;;;;;;;;;0.20;99.90;;;;;;5098742;28;19942;-86
2022/01/08 03:13:57;;;;;;;;;;;0.10;99.90;;;;;;5098847;28;19964;-87
2022/01/08 03:16:22;;;;;;;;;;;0.20;99.90;;;;;;5098578;28;19920;-87
2022/01/08 03:18:49;;;;;;;;;;;0.00;99.90;;;;;;5081893;28;20278;-87
2022/01/08 03:21:16;;;;;;;;;;;0.00;99.90;;;;;;5098533;28;20365;-87
2022/01/08 03:23:49;;;;;;;;;;;0.20;99.90;;;;;;5115501;28;19919;-86
2022/01/08 03:26:15;;;;;;;;;;;0.20;99.90;;;;;;5082923;28;19964;-87
2022/01/08 03:28:40;;;;;;;;;;;0.10;99.90;;;;;;5098614;28;20449;-87
2022/01/08 03:31:06;;;;;;;;;;;0.20;99.90;;;;;;5081624;28;19919;-87
2022/01/08 03:33:32;;;;;;;;;;;0.10;99.90;;;;;;5098630;28;19931;-87
2022/01/08 03:35:57;;;;;;;;;;;0.10;99.90;;;;;;5098609;28;19926;-87
2022/01/08 03:38:23;;;;;;;;;;;0.10;99.90;;;;;;5098958;28;19973;-87
2022/01/08 03:40:48;;;;;;;;;;;0.10;99.90;;;;;;5098525;28;19926;-87
2022/01/08 03:43:13;;;;;;;;;;;0.10;99.90;;;;;;5081271;28;19927;-87
2022/01/08 03:45:39;;;;;;;;;;;0.00;99.90;;;;;;5098487;28;19920;-87
2022/01/08 03:48:17;;;;;;;;;;;0.20;99.90;;;;;;5098507;27;19920;-87
2022/01/08 03:50:43;;;;;;;;;;;0.10;99.90;;;;;;5102103;27;19964;-87
2022/01/08 03:53:08;;;;;;;;;;;0.10;99.90;;;;;;5102455;27;20018;-87
2022/01/08 03:55:34;;;;;;;;;;;0.10;99.90;;;;;;5118923;27;19927;-87
2022/01/08 03:57:59;;;;;;;;;;;0.00;99.90;;;;;;5102211;27;20032;-88
2022/01/08 04:00:25;;;;;;;;;;;0.10;99.90;;;;;;5101796;27;19970;-87
2022/01/08 04:02:52;;;;;;;;;;;0.20;99.90;;;;;;5101835;27;19930;-87
2022/01/08 04:05:17;;;;;;;;;;;0.20;99.90;;;;;;5102218;27;20044;-87
2022/01/08 04:07:43;;;;;;;;;;;0.20;99.90;;;;;;5118994;27;20334;-87
2022/01/08 04:10:08;;;;;;;;;;;0.20;99.90;;;;;;5084966;27;19927;-87
2022/01/08 04:12:42;;;;;;;;;;;0.20;99.90;;;;;;5101496;27;19998;-87
2022/01/08 04:15:30;;;;;;;;;;;0.10;99.90;;;;;;5119040;27;19919;-87
2022/01/08 04:17:54;;;;;;;;;;;0.10;99.90;;;;;;5104479;27;19924;-87
2022/01/08 04:20:21;;;;;;;;;;;0.90;99.90;;;;;;5101896;27;20364;-87
2022/01/08 04:22:49;;;;;;;;;;;0.10;99.90;;;;;;5101369;27;19923;-87
2022/01/08 04:25:15;;;;;;;;;;;0.10;99.90;;;;;;5085099;27;19941;-87
2022/01/08 04:27:40;;;;;;;;;;;0.00;99.90;;;;;;5101518;27;19920;-87
2022/01/08 04:30:06;;;;;;;;;;;0.10;99.90;;;;;;5101376;27;19919;-86
2022/01/08 04:32:31;;;;;;;;;;;0.10;99.90;;;;;;5118162;27;19920;-87
2022/01/08 04:34:57;;;;;;;;;;;0.30;99.90;;;;;;5084327;27;19959;-88
2022/01/08 04:37:22;;;;;;;;;;;0.10;99.90;;;;;;5084760;27;19920;-87
2022/01/08 04:39:48;;;;;;;;;;;0.30;99.90;;;;;;5084325;27;20362;-86
2022/01/08 04:42:13;;;;;;;;;;;0.00;99.90;;;;;;5097237;28;19930;-86
2022/01/08 04:44:39;;;;;;;;;;;0.20;99.90;;;;;;5114705;28;19977;-87
2022/01/08 04:47:04;;;;;;;;;;;0.10;99.90;;;;;;5097636;28;19968;-87
2022/01/08 04:49:30;;;;;;;;;;;0.20;99.90;;;;;;5080557;28;19927;-87
2022/01/08 04:51:56;;;;;;;;;;;0.20;99.90;;;;;;5097847;28;20286;-87
2022/01/08 04:54:21;;;;;;;;;;;0.20;99.90;;;;;;5114466;28;19920;-87
2022/01/08 04:56:47;;;;;;;;;;;0.20;99.90;;;;;;5114442;28;20365;-87
2022/01/08 04:59:12;;;;;;;;;;;0.10;99.90;;;;;;5114973;28;19926;-87
2022/01/08 05:01:38;;;;;;;;;;;0.00;99.90;;;;;;5114485;28;19930;-87
2022/01/08 05:04:03;;;;;;;;;;;0.10;99.90;;;;;;5097517;28;19982;-87
2022/01/08 05:06:29;;;;;;;;;;;0.20;99.90;;;;;;5097320;28;19924;-87
2022/01/08 05:08:54;;;;;;;;;;;0.50;99.90;;;;;;5097370;28;19926;-87
2022/01/08 05:11:19;;;;;;;;;;;0.20;99.90;;;;;;5080414;28;19942;-87
2022/01/08 05:13:45;;;;;;;;;;;0.10;99.90;;;;;;5097120;28;19931;-87
2022/01/08 05:16:11;;;;;;;;;;;0.10;99.90;;;;;;5097014;28;19969;-87
2022/01/08 05:18:37;;;;;;;;;;;0.20;99.90;;;;;;5097074;28;19926;-88
2022/01/08 05:21:19;;;;;;;;;;;0.20;99.90;;;;;;5096935;28;19959;-88
2022/01/08 05:23:45;;;;;;;;;;;0.10;99.90;;;;;;5082420;28;19934;-87
2022/01/08 05:26:10;;;;;;;;;;;0.10;99.90;;;;;;5114185;28;19931;-87
2022/01/08 05:28:36;;;;;;;;;;;0.20;99.90;;;;;;5096943;28;19920;-87
2022/01/08 05:31:01;;;;;;;;;;;0.20;99.90;;;;;;5096579;28;19966;-87
2022/01/08 05:33:27;;;;;;;;;;;0.10;99.90;;;;;;5079675;28;19927;-87
2022/01/08 05:35:52;;;;;;;;;;;0.30;99.90;;;;;;5096596;28;19973;-87
2022/01/08 05:38:18;;;;;;;;;;;0.10;99.90;;;;;;5096981;28;19921;-87
2022/01/08 05:40:43;;;;;;;;;;;0.10;99.90;;;;;;5096738;28;20282;-87
2022/01/08 05:43:09;;;;;;;;;;;0.30;99.90;;;;;;5079369;28;19928;-87
2022/01/08 05:45:34;;;;;;;;;;;0.10;99.90;;;;;;5096456;28;20059;-87
2022/01/08 05:48:00;;;;;;;;;;;0.40;99.90;;;;;;5079407;28;19949;-87
2022/01/08 05:50:25;;;;;;;;;;;0.10;99.90;;;;;;5079557;28;19920;-88
2022/01/08 05:52:51;;;;;;;;;;;-0.20;99.90;;;;;;5096490;28;20262;-87
2022/01/08 05:55:17;;;;;;;;;;;0.00;99.90;;;;;;5113242;28;20025;-87
2022/01/08 05:57:43;;;;;;;;;;;-0.10;99.90;;;;;;5113666;28;19942;-87
2022/01/08 06:00:08;;;;;;;;;;;0.30;99.90;;;;;;5079252;28;20385;-88
2022/01/08 06:02:34;;;;;;;;;;;0.10;99.90;;;;;;5079024;28;19923;-87
2022/01/08 06:05:00;;;;;;;;;;;0.00;99.90;;;;;;5113233;28;20007;-87
2022/01/08 06:07:25;;;;;;;;;;;0.00;99.90;;;;;;5079211;28;19927;-87
2022/01/08 06:09:51;;;;;;;;;;;-0.20;99.90;;;;;;5079187;28;19969;-87
2022/01/08 06:12:16;;;;;;;;;;;-0.20;99.90;;;;;;5095608;28;19968;-87
2022/01/08 06:14:42;;;;;;;;;;;0.00;99.90;;;;;;5095982;28;19927;-87
2022/01/08 06:17:07;;;;;;;;;;;-0.10;99.90;;;;;;5079583;28;19919;-87
2022/01/08 06:19:33;;;;;;;;;;;-0.30;99.90;;;;;;5079459;28;19927;-88
2022/01/08 06:21:59;;;;;;;;;;;0.30;99.90;;;;;;5095729;28;19935;-88
2022/01/08 06:24:24;;;;;;;;;;;-0.30;99.90;;;;;;5096382;28;19919;-89
2022/01/08 06:26:50;;;;;;;;;;;-0.10;99.90;;;;;;5095839;28;19920;-89
2022/01/08 06:29:15;;;;;;;;;;;0.80;99.90;;;;;;5079296;28;19927;-89
2022/01/08 06:31:41;;;;;;;;;;;-0.40;99.90;;;;;;5079010;28;20274;-89
2022/01/08 06:34:09;;;;;;;;;;;-0.30;99.90;;;;;;5095901;28;20003;-89
2022/01/08 06:36:36;;;;;;;;;;;0.80;99.90;;;;;;5095928;28;20011;-88
2022/01/08 06:39:02;;;;;;;;;;;0.60;99.90;;;;;;5079397;28;20440;-89
2022/01/08 06:41:29;;;;;;;;;;;-0.10;99.90;;;;;;5095672;28;20014;-90
2022/01/08 06:43:58;;;;;;;;;;;-0.30;99.90;;;;;;5095766;28;19928;-89
2022/01/08 06:46:23;;;;;;;;;;;-0.10;99.90;;;;;;5078596;28;19919;-88
2022/01/08 06:48:49;;;;;;;;;;;-0.10;99.90;;;;;;5096183;28;19973;-90
2022/01/08 06:51:15;;;;;;;;;;;0.00;99.90;;;;;;5078886;28;19933;-89
2022/01/08 06:53:43;;;;;;;;;;;0.20;99.90;;;;;;5095672;28;19924;-89
2022/01/08 06:56:08;;;;;;;;;;;1.60;99.90;;;;;;5095725;28;19966;-89
2022/01/08 06:58:34;;;;;;;;;;;-0.20;99.90;;;;;;5095626;28;20285;-88
2022/01/08 07:00:59;;;;;;;;;;;-0.20;99.90;;;;;;5112743;28;19924;-89
2022/01/08 07:03:25;;;;;;;;;;;-0.10;99.90;;;;;;5095350;28;20278;-90
2022/01/08 07:05:50;;;;;;;;;;;0.00;99.90;;;;;;5078591;28;19924;-89
2022/01/08 07:08:18;;;;;;;;;;;-0.10;99.90;;;;;;5095685;28;19985;-89
2022/01/08 07:10:44;;;;;;;;;;;-0.10;99.90;;;;;;5078853;28;19925;-89
2022/01/08 07:13:09;;;;;;;;;;;0.00;99.90;;;;;;5095385;28;20258;-89
2022/01/08 07:15:37;;;;;;;;;;;-0.10;99.90;;;;;;5095709;28;20276;-88
2022/01/08 07:18:03;;;;;;;;;;;-0.10;99.90;;;;;;5113240;28;20364;-89
2022/01/08 07:20:30;;;;;;;;;;;-0.40;99.90;;;;;;5095194;28;19920;-89
2022/01/08 07:22:56;;;;;;;;;;;1.60;99.90;;;;;;5095406;28;20369;-89
2022/01/08 07:25:21;;;;;;;;;;;0.10;99.90;;;;;;5098551;28;19947;-89
2022/01/08 07:27:52;;;;;;;;;;;0.50;99.90;;;;;;5100028;28;19920;-88
2022/01/08 07:30:21;;;;;;;;;;;-0.10;99.90;;;;;;5100016;28;19931;-89
2022/01/08 07:32:52;;;;;;;;;;;0.20;99.90;;;;;;5098934;28;19935;-89
2022/01/08 07:35:20;;;;;;;;;;;0.00;99.90;;;;;;5082532;28;19924;-89
2022/01/08 07:37:46;;;;;;;;;;;-0.10;99.90;;;;;;5082711;28;19927;-89
2022/01/08 07:40:14;;;;;;;;;;;-0.20;99.90;;;;;;5098928;28;19995;-88
2022/01/08 07:42:45;;;;;;;;;;;0.00;99.90;;;;;;5093025;28;19928;-88
2022/01/08 07:45:10;;;;;;;;;;;0.20;99.90;;;;;;5078588;28;19920;-89
2022/01/08 07:47:39;;;;;;;;;;;-0.10;99.90;;;;;;5079068;28;19920;-89
2022/01/08 07:50:05;;;;;;;;;;;0.40;99.90;;;;;;5078913;28;19966;-89
2022/01/08 07:52:32;;;;;;;;;;;-0.10;99.90;;;;;;5078535;28;19971;-88
2022/01/08 07:55:00;;;;;;;;;;;0.50;99.90;;;;;;5062034;28;19927;-88
2022/01/08 07:57:26;;;;;;;;;;;1.40;99.90;;;;;;5078505;28;20289;-88
2022/01/08 07:59:52;;;;;;;;;;;-0.10;99.90;;;;;;5061563;28;19920;-88
2022/01/08 08:02:18;;;;;;;;;;;-0.40;99.90;;;;;;5060858;28;19924;-88
2022/01/08 08:04:43;;;;;;;;;;;0.60;99.90;;;;;;5061488;28;19920;-89
2022/01/08 08:07:09;;;;;;;;;;;0.00;99.90;;;;;;5078230;28;20447;-88
2022/01/08 08:09:34;;;;;;;;;;;0.10;99.90;;;;;;5078196;28;19920;-89
2022/01/08 08:12:00;;;;;;;;;;;-0.20;99.90;;;;;;5078160;28;19927;-89
2022/01/08 08:14:25;;;;;;;;;;;0.70;99.90;;;;;;5062508;28;19927;-89
2022/01/08 08:16:51;;;;;;;;;;;1.10;99.90;;;;;;5061699;28;20341;-90
2022/01/08 08:19:19;;;;;;;;;;;-0.20;99.90;;;;;;5077872;28;19925;-89
2022/01/08 08:21:44;;;;;;;;;;;0.30;99.90;;;;;;5077170;28;20015;-88
2022/01/08 08:24:29;;;;;;;;;;;0.00;99.90;;;;;;5060302;28;20265;-90
2022/01/08 08:27:32;;;;;;;;;;;;;;;;;;;;;
2022/01/08 08:30:10;;;;;;;;;;;;;;;;;;;;;
2022/01/08 08:32:49;;;;;;;;;;;0.50;99.90;;;;;;5079366;28;19919;-91
2022/01/08 08:35:48;;;;;;;;;;;;;;;;;;;;;
2022/01/08 08:38:41;;;;;;;;;;;0.90;99.90;;;;;;5099964;28;19924;-91
2022/01/08 08:46:54;;;;;;;;;;;1.30;99.90;;;;;;5087242;28;19973;-92
2022/01/08 08:49:35;;;;;;;;;;;;;;;;;;;;;
2022/01/08 08:52:23;;;;;;;;;;;;;;;;;;;;;
2022/01/08 08:55:30;;;;;;;;;;;0.50;99.90;;;;;;5099735;28;20427;-92
2022/01/08 08:58:17;;;;;;;;;;;-0.50;99.90;;;;;;5111190;28;19923;-92
2022/01/08 09:03:50;;;;;;;;;;;;;;;;;;;;;
2022/01/08 09:06:26;;;;;;;;;;;;;;;;;;;;;
2022/01/08 09:09:15;;;;;;;;;;;;;;;;;;;;;
2022/01/08 09:18:14;;;;;;;;;;;;;;;;;;;;;
2022/01/08 09:24:03;;;;;;;;;;;;;;;;;;;;;
2022/01/08 09:33:14;;;;;;;;;;;;;;;;;;;;;
2022/01/08 11:21:31;;;;;;;;;;;2.40;99.90;;;;;;5030141;28;19967;-92
2022/01/08 11:24:27;;;;;;;;;;;;;;;;;;;;;
2022/01/08 11:27:03;;;;;;;;;;;3.40;99.90;;;;;;5036662;28;20139;-92
2022/01/08 11:29:34;;;;;;;;;;;3.70;99.90;;;;;;5021087;28;19960;-91
2022/01/08 11:34:58;;;;;;;;;;;3.40;99.90;;;;;;5036964;28;19921;-91
2022/01/08 11:40:27;;;;;;;;;;;4.20;99.90;;;;;;5027261;28;20000;-92
2022/01/08 11:43:02;;;;;;;;;;;3.30;99.90;;;;;;5001970;28;19921;-90
2022/01/08 11:48:22;;;;;;;;;;;3.90;99.90;;;;;;5019538;28;19921;-91
2022/01/08 11:51:07;;;;;;;;;;;3.20;99.90;;;;;;5012246;28;19921;-93
2022/01/08 11:53:45;;;;;;;;;;;3.10;99.90;;;;;;5027094;28;20278;-90
2022/01/08 11:56:37;;;;;;;;;;;4.20;99.90;;;;;;5014636;28;20019;-91
2022/01/08 11:59:42;;;;;;;;;;;;;;;;;;;;;
2022/01/08 12:08:01;;;;;;;;;;;3.40;99.90;;;;;;5006445;28;20526;-91
2022/01/08 12:10:32;;;;;;;;;;;3.20;99.90;;;;;;5002590;28;19921;-90
2022/01/08 12:13:28;;;;;;;;;;;3.80;99.90;;;;;;5020128;28;19967;-91
2022/01/08 12:16:02;;;;;;;;;;;4.10;99.90;;;;;;4998876;28;19968;-92
2022/01/08 12:18:29;;;;;;;;;;;3.20;99.90;;;;;;5017086;28;19944;-90
2022/01/08 12:21:05;;;;;;;;;;;4.50;99.90;;;;;;5014252;28;19926;-91
2022/01/08 12:23:37;;;;;;;;;;;3.80;99.90;;;;;;5000377;28;19921;-89
2022/01/08 12:26:06;;;;;;;;;;;3.30;99.90;;;;;;5000414;28;19975;-91
2022/01/08 12:28:38;;;;;;;;;;;3.30;99.90;;;;;;4999896;28;19940;-89
2022/01/08 12:31:23;;;;;;;;;;;3.30;99.90;;;;;;5016476;28;19941;-90
2022/01/08 12:34:14;;;;;;;;;;;3.30;99.90;;;;;;5016735;28;19972;-90
2022/01/08 12:39:41;;;;;;;;;;;3.20;99.90;;;;;;5033375;28;19927;-90
2022/01/08 12:42:19;;;;;;;;;;;3.30;99.90;;;;;;5033026;28;20402;-92
2022/01/08 12:44:57;;;;;;;;;;;3.30;99.90;;;;;;5016611;28;20367;-90
2022/01/08 12:47:46;;;;;;;;;;;3.40;99.90;;;;;;5000599;28;20062;-91
2022/01/08 12:53:09;;;;;;;;;;;3.40;99.90;;;;;;5022347;28;19928;-90
2022/01/08 12:59:08;;;;;;;;;;;;;;;;;;;;;
2022/01/08 13:01:36;;;;;;;;;;;3.10;99.90;;;;;;5018771;28;19921;-90
2022/01/08 13:04:09;;;;;;;;;;;3.70;99.90;;;;;;5000712;28;19929;-90
2022/01/08 13:06:35;;;;;;;;;;;3.30;99.90;;;;;;5017087;28;19928;-90
2022/01/08 13:09:11;;;;;;;;;;;;;;;;;;;;;
2022/01/08 13:11:50;;;;;;;;;;;;;;;;;;;;;
2022/01/08 13:14:19;;;;;;;;;;;3.80;99.90;;;;;;5017767;28;19925;-90
2022/01/08 13:17:04;;;;;;;;;;;;;;;;;;;;;
2022/01/08 13:19:34;;;;;;;;;;;3.80;99.90;;;;;;5032560;28;20338;-89
2022/01/08 13:22:09;;;;;;;;;;;3.40;99.90;;;;;;5014915;28;19928;-90
2022/01/08 13:24:42;;;;;;;;;;;4.00;99.90;;;;;;5017561;28;19925;-90
2022/01/08 13:27:30;;;;;;;;;;;;;;;;;;;;;
2022/01/08 13:30:13;;;;;;;;;;;;;;;;;;;;;
2022/01/08 13:32:54;;;;;;;;;;;;;;;;;;;;;
2022/01/08 13:35:22;;;;;;;;;;;3.20;99.90;;;;;;5018060;28;20176;-89
2022/01/08 13:38:04;;;;;;;;;;;3.70;99.90;;;;;;5016167;28;19956;-92
2022/01/08 13:40:45;;;;;;;;;;;3.30;99.90;;;;;;5002315;28;20017;-91
2022/01/08 13:43:11;;;;;;;;;;;3.10;99.90;;;;;;5016755;28;19921;-88
2022/01/08 13:45:41;;;;;;;;;;;3.90;99.90;;;;;;4999039;28;19947;-90
2022/01/08 13:48:18;;;;;;;;;;;;;;;;;;;;;
2022/01/08 13:50:57;;;;;;;;;;;4.30;99.90;;;;;;5017062;28;19925;-91
2022/01/08 13:53:42;;;;;;;;;;;3.80;99.90;;;;;;5016697;28;20399;-92
2022/01/08 13:56:13;;;;;;;;;;;3.10;99.90;;;;;;5001771;28;20036;-90
2022/01/08 13:58:41;;;;;;;;;;;3.30;99.90;;;;;;5016421;28;20444;-92
2022/01/08 14:01:53;;;;;;;;;;;3.50;99.90;;;;;;4999177;28;19925;-91
2022/01/08 14:04:40;;;;;;;;;;;;;;;;;;;;;
2022/01/08 14:07:26;;;;;;;;;;;4.20;99.90;;;;;;5022051;28;19921;-91
2022/01/08 14:10:10;;;;;;;;;;;4.00;99.90;;;;;;5015802;28;19925;-93
2022/01/08 14:12:44;;;;;;;;;;;3.20;99.90;;;;;;5016308;28;19928;-90
2022/01/08 14:18:24;;;;;;;;;;;2.90;99.90;;;;;;4996988;28;19927;-89
2022/01/08 14:21:03;;;;;;;;;;;;;;;;;;;;;
2022/01/08 14:26:33;;;;;;;;;;;3.40;99.90;;;;;;4987585;28;19929;-91
2022/01/08 14:29:09;;;;;;;;;;;;;;;;;;;;;
2022/01/08 14:31:45;;;;;;;;;;;4.30;99.90;;;;;;5031949;28;19967;-90
2022/01/08 14:34:41;;;;;;;;;;;;;;;;;;;;;
2022/01/08 14:37:37;;;;;;;;;;;;;;;;;;;;;
2022/01/08 14:40:56;;;;;;;;;;;3.10;99.90;;;;;;5007177;28;19968;-92
2022/01/08 14:43:57;;;;;;;;;;;;;;;;;;;;;
2022/01/08 14:49:33;;;;;;;;;;;2.80;99.90;;;;;;5011678;28;20010;-91
2022/01/08 14:52:28;;;;;;;;;;;4.20;99.90;;;;;;4999312;28;19921;-91
2022/01/08 14:54:53;;;;;;;;;;;3.80;99.90;;;;;;4998733;28;20271;-90
2022/01/08 14:57:26;;;;;;;;;;;2.80;99.90;;;;;;4999055;28;19975;-90
2022/01/08 15:00:15;;;;;;;;;;;2.50;99.90;;;;;;4999660;28;20008;-89
2022/01/08 15:02:53;;;;;;;;;;;;;;;;;;;;;
2022/01/08 15:05:29;;;;;;;;;;;;;;;;;;;;;
2022/01/08 15:08:15;;;;;;;;;;;2.60;99.90;;;;;;5000116;28;19929;-92
2022/01/08 15:10:48;;;;;;;;;;;3.50;99.90;;;;;;4998396;28;19974;-89
2022/01/08 15:13:34;;;;;;;;;;;4.00;99.90;;;;;;4982363;28;19971;-89
2022/01/08 15:16:09;;;;;;;;;;;;;;;;;;;;;
2022/01/08 15:18:55;;;;;;;;;;;2.60;99.90;;;;;;4999853;28;20449;-91
2022/01/08 15:21:38;;;;;;;;;;;2.70;99.90;;;;;;4998364;28;19925;-89
2022/01/08 15:24:09;;;;;;;;;;;2.70;99.90;;;;;;4982147;28;20330;-89
2022/01/08 15:26:42;;;;;;;;;;;2.50;99.90;;;;;;4998611;28;19961;-88
2022/01/08 15:29:12;;;;;;;;;;;1.60;99.90;;;;;;5014258;28;19921;-89
2022/01/08 15:31:43;;;;;;;;;;;3.20;99.90;;;;;;4982423;28;19996;-89
2022/01/08 15:34:11;;;;;;;;;;;2.70;99.90;;;;;;5019113;28;20011;-89
2022/01/08 15:36:36;;;;;;;;;;;2.60;99.90;;;;;;5017548;28;20328;-90
2022/01/08 15:39:11;;;;;;;;;;;2.50;99.90;;;;;;5001320;28;19972;-90
2022/01/08 15:42:13;;;;;;;;;;;2.90;99.90;;;;;;5001400;28;19921;-92
2022/01/08 15:44:49;;;;;;;;;;;;;;;;;;;;;
2022/01/08 15:47:45;;;;;;;;;;;3.20;99.90;;;;;;5038006;28;19928;-90
2022/01/08 15:50:40;;;;;;;;;;;;;;;;;;;;;
2022/01/08 15:53:14;;;;;;;;;;;2.20;99.90;;;;;;5034321;28;19982;-90
2022/01/08 15:55:57;;;;;;;;;;;;;;;;;;;;;
2022/01/08 15:58:33;;;;;;;;;;;3.00;99.90;;;;;;5019133;28;20530;-90
2022/01/08 16:01:09;;;;;;;;;;;;;;;;;;;;;
2022/01/08 16:06:54;;;;;;;;;;;;;;;;;;;;;
2022/01/08 16:09:33;;;;;;;;;;;3.20;99.90;;;;;;5055380;28;19929;-88
2022/01/08 16:12:37;;;;;;;;;;;3.80;99.90;;;;;;5007204;28;19920;-93
2022/01/08 16:15:30;;;;;;;;;;;2.80;99.90;;;;;;5003977;28;19929;-89
2022/01/08 16:21:06;;;;;;;;;;;2.80;99.90;;;;;;5013070;28;19934;-90
2022/01/08 16:23:31;;;;;;;;;;;3.80;99.90;;;;;;5037846;28;19976;-88
2022/01/08 16:25:57;;;;;;;;;;;2.20;99.90;;;;;;5020678;28;19971;-88
2022/01/08 16:28:28;;;;;;;;;;;2.70;99.90;;;;;;5044333;28;20374;-89
2022/01/08 16:30:53;;;;;;;;;;;2.50;99.90;;;;;;5056438;28;19928;-88
2022/01/08 16:33:19;;;;;;;;;;;2.20;99.90;;;;;;5040121;28;19920;-87
2022/01/08 16:35:46;;;;;;;;;;;2.60;99.90;;;;;;5040356;28;19967;-87
2022/01/08 16:38:14;;;;;;;;;;;2.40;99.90;;;;;;5056618;28;20473;-88
2022/01/08 16:40:40;;;;;;;;;;;3.20;99.90;;;;;;5056888;28;20430;-88
2022/01/08 16:43:06;;;;;;;;;;;2.70;99.90;;;;;;5056367;28;19979;-88
2022/01/08 16:45:31;;;;;;;;;;;2.40;99.90;;;;;;5056325;28;19928;-87
2022/01/08 16:48:00;;;;;;;;;;;2.20;99.90;;;;;;5040023;28;20084;-91
2022/01/08 16:50:25;;;;;;;;;;;3.80;99.90;;;;;;5040384;28;19920;-89
2022/01/08 16:52:51;;;;;;;;;;;2.50;99.90;;;;;;5053042;28;20057;-87
2022/01/08 16:55:16;;;;;;;;;;;2.80;99.90;;;;;;5030366;28;19928;-88
2022/01/08 16:57:44;;;;;;;;;;;2.50;99.90;;;;;;5036438;28;19925;-88
2022/01/08 17:00:10;;;;;;;;;;;4.10;99.90;;;;;;5056875;28;20283;-88
2022/01/08 17:02:36;;;;;;;;;;;2.50;99.90;;;;;;5055927;28;19932;-88
2022/01/08 17:07:50;;;;;;;;;;;2.40;99.90;;;;;;5046928;28;19920;-88
2022/01/08 17:10:16;;;;;;;;;;;3.30;99.90;;;;;;5056052;28;19927;-89
2022/01/08 17:12:41;;;;;;;;;;;3.10;99.90;;;;;;5039500;28;19931;-87
2022/01/08 17:15:13;;;;;;;;;;;2.40;99.90;;;;;;5039433;28;19921;-88
2022/01/08 17:17:38;;;;;;;;;;;2.60;99.90;;;;;;5030967;28;19932;-87
2022/01/08 17:20:04;;;;;;;;;;;2.50;99.90;;;;;;5022804;28;19966;-89
2022/01/08 17:22:32;;;;;;;;;;;2.60;99.90;;;;;;5050684;28;20367;-88
2022/01/08 17:25:00;;;;;;;;;;;2.30;99.90;;;;;;5029349;28;19946;-88
2022/01/08 17:27:28;;;;;;;;;;;2.60;99.90;;;;;;5002434;28;19921;-90
2022/01/08 17:29:53;;;;;;;;;;;2.50;99.90;;;;;;5032410;28;20001;-89
2022/01/08 17:32:22;;;;;;;;;;;2.60;99.90;;;;;;4993272;28;20024;-90
2022/01/08 17:34:47;;;;;;;;;;;3.70;99.90;;;;;;5001933;28;19921;-87
2022/01/08 17:37:15;;;;;;;;;;;2.60;99.90;;;;;;5002547;28;19927;-88
2022/01/08 17:39:45;;;;;;;;;;;2.70;99.90;;;;;;5017595;28;19921;-89
2022/01/08 17:42:11;;;;;;;;;;;2.40;99.90;;;;;;5013619;28;19925;-88
2022/01/08 17:44:36;;;;;;;;;;;2.50;99.90;;;;;;5018998;28;20286;-88
2022/01/08 17:47:02;;;;;;;;;;;2.50;99.90;;;;;;5017891;28;19929;-89
2022/01/08 17:49:28;;;;;;;;;;;2.70;99.90;;;;;;5023402;28;19935;-88
2022/01/08 17:52:04;;;;;;;;;;;;;;;;;;;;;
2022/01/08 17:54:30;;;;;;;;;;;2.50;99.90;;;;;;5026922;28;19920;-89
2022/01/08 17:57:01;;;;;;;;;;;2.60;99.90;;;;;;5018329;28;19921;-94
2022/01/08 17:59:27;;;;;;;;;;;2.80;99.90;;;;;;5034374;28;20007;-87
2022/01/08 18:01:54;;;;;;;;;;;2.60;99.90;;;;;;5027067;28;19927;-90
2022/01/08 18:04:20;;;;;;;;;;;2.80;99.90;;;;;;4999357;28;19921;-90
2022/01/08 18:06:48;;;;;;;;;;;2.90;99.90;;;;;;4998974;28;19931;-89
2022/01/08 18:09:18;;;;;;;;;;;2.40;99.90;;;;;;4998116;28;19928;-91
2022/01/08 18:11:47;;;;;;;;;;;2.80;99.90;;;;;;5015520;28;19928;-91
2022/01/08 18:14:15;;;;;;;;;;;2.50;99.90;;;;;;5015210;28;19921;-89
2022/01/08 18:16:43;;;;;;;;;;;3.00;99.90;;;;;;5002531;28;19924;-90
2022/01/08 18:19:09;;;;;;;;;;;2.80;99.90;;;;;;5018704;28;19921;-89
2022/01/08 18:21:42;;;;;;;;;;;2.50;99.90;;;;;;5034810;28;20218;-90
2022/01/08 18:24:18;;;;;;;;;;;3.40;99.90;;;;;;5019218;28;19925;-90
2022/01/08 18:26:44;;;;;;;;;;;2.80;99.90;;;;;;5034552;28;19983;-89
2022/01/08 18:29:12;;;;;;;;;;;4.40;99.90;;;;;;5017945;28;20219;-88
2022/01/08 18:31:37;;;;;;;;;;;3.50;99.90;;;;;;5034447;28;20393;-88
2022/01/08 18:34:05;;;;;;;;;;;3.50;99.90;;;;;;5028420;28;19921;-88